Terminal Aerodrome Forecast
Issued by NWS Wakefield, VA

Home | Current Version | Previous Version | Text Only | Print | Product List | Glossary On
Versions: 1 2 3 4 5 6 7 8 9 10 11 12 13 14 15 16 17 18 19 20 21 22 23 24 25 26
000
FTUS41 KAKQ 251733
TAFORF
TAF
KORF 251733Z 2518/2618 23015G25KT P6SM BKN060 OVC100
     FM252300 23009KT P6SM BKN150
     FM260300 28006KT P6SM OVC100
     FM260900 02005KT P6SM -RA OVC060
     FM261300 05008KT 4SM -RA BR SCT025 OVC040=

USA.gov is the U.S. government's official web portal to all federal, state and local government web resources and services.